createdAt,value
2022-10-24T00:01:16.498Z,12.94
2022-10-24T00:03:43.562Z,12.88
2022-10-24T00:06:12.529Z,12.99
2022-10-24T00:08:40.909Z,12.78
2022-10-24T00:11:18.598Z,12.54
2022-10-24T00:13:45.618Z,12.32
2022-10-24T00:16:13.730Z,12.45
2022-10-24T00:18:40.984Z,12.76
2022-10-24T00:21:08.678Z,12.81
2022-10-24T00:23:36.073Z,12.81
2022-10-24T00:26:04.437Z,12.73
2022-10-24T00:28:33.512Z,13.05
2022-10-24T00:31:00.857Z,13.02
2022-10-24T00:33:28.081Z,13.02
2022-10-24T00:35:54.991Z,13.03
2022-10-24T00:38:21.879Z,13.25
2022-10-24T00:40:48.745Z,13.52
2022-10-24T00:43:24.230Z,13.55
2022-10-24T00:45:57.330Z,13.49
2022-10-24T00:48:32.918Z,13.45
2022-10-24T00:51:16.679Z,13.41
2022-10-24T00:53:47.847Z,13.39
2022-10-24T00:56:18.707Z,13.51
2022-10-24T00:58:46.337Z,13.60
2022-10-24T01:01:13.436Z,13.46
2022-10-24T01:03:40.800Z,13.52
2022-10-24T01:06:29.381Z,13.45
2022-10-24T01:09:14.103Z,13.40
2022-10-24T01:11:59.586Z,13.15
2022-10-24T01:14:58.098Z,12.97
2022-10-24T01:17:39.119Z,13.00
2022-10-24T01:20:34.758Z,12.86
2022-10-24T01:23:13.991Z,12.89
2022-10-24T01:25:55.876Z,12.90
2022-10-24T01:28:28.938Z,12.88
2022-10-24T01:31:21.757Z,12.87
2022-10-24T01:33:55.811Z,12.91
2022-10-24T01:36:41.022Z,13.10
2022-10-24T01:39:15.062Z,13.37
2022-10-24T01:41:43.720Z,13.58
2022-10-24T01:44:33.135Z,13.69
2022-10-24T01:47:06.865Z,13.68
2022-10-24T01:49:37.281Z,13.74
2022-10-24T01:52:08.318Z,13.40
2022-10-24T01:54:37.518Z,12.71
2022-10-24T01:57:05.677Z,12.52
2022-10-24T01:59:32.451Z,12.65
2022-10-24T02:02:03.113Z,13.03
2022-10-24T02:04:33.139Z,13.06
2022-10-24T02:07:04.416Z,13.12
2022-10-24T02:09:35.010Z,13.17
2022-10-24T02:12:01.929Z,12.79
2022-10-24T02:14:35.695Z,12.68
2022-10-24T02:17:03.900Z,12.70
2022-10-24T02:19:32.304Z,12.73
2022-10-24T02:22:24.818Z,12.96
2022-10-24T02:25:09.295Z,13.02
2022-10-24T02:27:43.735Z,13.12
2022-10-24T02:30:19.126Z,13.19
2022-10-24T02:32:52.854Z,13.08
2022-10-24T02:35:24.107Z,12.96
2022-10-24T02:37:55.294Z,12.52
2022-10-24T02:40:23.305Z,12.50
2022-10-24T02:42:55.288Z,12.32
2022-10-24T02:45:23.360Z,12.60
2022-10-24T02:47:53.110Z,12.70
2022-10-24T02:50:20.497Z,12.44
2022-10-24T02:52:48.108Z,12.10
2022-10-24T02:55:15.081Z,11.85
2022-10-24T02:57:42.025Z,11.93
2022-10-24T03:00:09.574Z,12.26
2022-10-24T03:02:36.472Z,12.36
2022-10-24T03:05:03.538Z,12.38
2022-10-24T03:10:02.283Z,11.78
2022-10-24T03:12:29.169Z,11.73
2022-10-24T03:14:56.006Z,12.17
2022-10-24T03:17:23.442Z,12.24
2022-10-24T03:19:50.333Z,12.23
2022-10-24T03:22:17.238Z,12.38
2022-10-24T03:24:54.888Z,12.50
2022-10-24T03:27:22.765Z,12.51
2022-10-24T03:29:49.742Z,11.81
2022-10-24T03:32:16.692Z,10.99
2022-10-24T03:34:43.748Z,10.86
2022-10-24T03:37:10.701Z,10.83
2022-10-24T03:39:37.684Z,10.86
2022-10-24T03:42:04.689Z,11.11
2022-10-24T03:44:31.559Z,11.17
2022-10-24T03:46:58.457Z,11.23
2022-10-24T03:49:25.591Z,11.28
2022-10-24T03:51:52.439Z,11.28
2022-10-24T03:54:19.347Z,11.49
2022-10-24T03:56:47.991Z,11.68
2022-10-24T03:59:15.030Z,11.88
2022-10-24T04:01:42.115Z,11.99
2022-10-24T04:04:09.101Z,12.06
2022-10-24T04:06:36.703Z,12.41
2022-10-24T04:09:04.710Z,12.57
2022-10-24T04:11:31.782Z,12.51
2022-10-24T04:16:34.913Z,11.82
2022-10-24T04:19:02.581Z,11.94
2022-10-24T04:21:29.827Z,11.86
2022-10-24T04:23:57.416Z,11.39
2022-10-24T04:26:24.789Z,11.20
2022-10-24T04:28:51.800Z,11.22
2022-10-24T04:31:22.492Z,11.26
2022-10-24T04:33:50.792Z,11.12
2022-10-24T04:36:17.777Z,11.27
2022-10-24T04:38:44.625Z,11.64
2022-10-24T04:41:12.352Z,11.57
2022-10-24T04:43:40.562Z,11.70
2022-10-24T04:46:07.689Z,11.93
2022-10-24T04:48:34.822Z,12.16
2022-10-24T04:51:02.067Z,12.31
2022-10-24T04:53:29.110Z,12.37
2022-10-24T04:55:56.030Z,12.33
2022-10-24T04:58:23.002Z,12.39
2022-10-24T05:00:50.500Z,12.03
2022-10-24T05:03:18.630Z,11.60
2022-10-24T05:05:46.611Z,11.07
2022-10-24T05:08:13.598Z,10.85
2022-10-24T05:10:40.652Z,10.76
2022-10-24T05:13:07.788Z,10.58
2022-10-24T05:15:34.858Z,10.68
2022-10-24T05:18:02.101Z,10.85
2022-10-24T05:20:29.295Z,11.09
2022-10-24T05:22:56.493Z,11.30
2022-10-24T05:25:23.403Z,11.57
2022-10-24T05:27:50.295Z,11.75
2022-10-24T05:30:17.178Z,12.02
2022-10-24T05:32:44.669Z,12.26
2022-10-24T05:35:12.368Z,12.46
2022-10-24T05:37:39.383Z,12.61
2022-10-24T05:40:11.122Z,12.80
2022-10-24T05:42:38.825Z,12.95
2022-10-24T05:45:08.224Z,13.08
2022-10-24T05:47:35.162Z,13.24
2022-10-24T05:50:02.303Z,13.43
2022-10-24T05:52:29.300Z,13.60
2022-10-24T05:55:06.891Z,13.72
2022-10-24T05:57:36.089Z,13.83
2022-10-24T06:00:05.069Z,13.89
2022-10-24T06:02:39.379Z,13.97
2022-10-24T06:05:07.832Z,14.09
2022-10-24T06:07:35.378Z,14.23
2022-10-24T06:10:04.386Z,14.25
2022-10-24T06:12:31.393Z,14.26
2022-10-24T06:14:59.777Z,14.33
2022-10-24T06:17:26.978Z,14.57
2022-10-24T06:19:53.944Z,14.85
2022-10-24T06:22:24.212Z,14.98
2022-10-24T06:24:51.352Z,15.20
2022-10-24T06:27:18.343Z,15.37
2022-10-24T06:29:45.830Z,15.50
2022-10-24T06:32:12.739Z,15.62
2022-10-24T06:34:40.438Z,15.75
2022-10-24T06:37:07.314Z,15.78
2022-10-24T06:39:34.256Z,15.94
2022-10-24T06:42:01.908Z,15.92
2022-10-24T06:44:28.860Z,16.10
2022-10-24T06:46:55.771Z,16.07
2022-10-24T06:49:22.858Z,16.11
2022-10-24T06:51:49.834Z,16.12
2022-10-24T06:54:17.126Z,16.21
2022-10-24T06:56:44.009Z,16.33
2022-10-24T06:59:14.652Z,16.46
2022-10-24T07:01:42.400Z,16.42
2022-10-24T07:04:09.527Z,16.30
2022-10-24T07:06:36.992Z,16.35
2022-10-24T07:09:06.581Z,16.47
2022-10-24T07:11:34.589Z,16.55
2022-10-24T07:14:03.451Z,16.58
2022-10-24T07:16:31.448Z,16.82
2022-10-24T07:18:58.627Z,16.82
2022-10-24T07:21:28.632Z,17.13
2022-10-24T07:23:56.605Z,17.31
2022-10-24T07:26:25.460Z,17.43
2022-10-24T07:31:35.209Z,17.59
2022-10-24T07:34:04.653Z,17.60
2022-10-24T07:36:31.677Z,17.63
2022-10-24T07:38:59.689Z,17.85
2022-10-24T07:41:28.650Z,17.87
2022-10-24T07:43:57.923Z,17.86
2022-10-24T07:46:26.330Z,17.74
2022-10-24T07:48:54.280Z,17.77
2022-10-24T07:51:22.139Z,17.85
2022-10-24T07:53:49.434Z,18.26
2022-10-24T07:56:17.667Z,18.05
2022-10-24T07:58:45.901Z,18.13
2022-10-24T08:01:16.280Z,18.26
2022-10-24T08:03:43.596Z,18.59
2022-10-24T08:06:14.464Z,18.38
2022-10-24T08:08:41.641Z,18.57
2022-10-24T08:11:10.817Z,18.55
2022-10-24T08:13:37.998Z,18.69
2022-10-24T08:16:06.761Z,18.83
2022-10-24T08:18:38.665Z,18.98
2022-10-24T08:21:08.345Z,18.82
2022-10-24T08:23:36.926Z,18.95
2022-10-24T08:26:08.399Z,19.09
2022-10-24T08:28:36.217Z,18.99
2022-10-24T08:31:08.715Z,19.15
2022-10-24T08:33:35.661Z,19.63
2022-10-24T08:36:06.230Z,19.69
2022-10-24T08:38:33.492Z,20.02
2022-10-24T08:41:00.979Z,19.78
2022-10-24T08:43:28.012Z,20.00
2022-10-24T08:46:03.066Z,20.02
2022-10-24T08:48:37.642Z,20.25
2022-10-24T08:51:19.826Z,20.61
2022-10-24T08:53:47.907Z,20.74
2022-10-24T08:56:14.836Z,20.63
2022-10-24T08:58:45.236Z,20.78
2022-10-24T09:01:27.445Z,20.85
2022-10-24T09:03:58.549Z,20.98
2022-10-24T09:06:28.854Z,21.13
2022-10-24T09:09:27.133Z,21.28
2022-10-24T09:12:01.870Z,21.27
2022-10-24T09:14:33.750Z,21.21
2022-10-24T09:17:06.826Z,21.31
2022-10-24T09:19:33.813Z,21.33
2022-10-24T09:22:02.422Z,21.45
2022-10-24T09:24:54.037Z,21.62
2022-10-24T09:27:25.666Z,21.65
2022-10-24T09:29:53.141Z,21.61
2022-10-24T09:32:27.699Z,21.51
2022-10-24T09:34:55.336Z,21.57
2022-10-24T09:37:49.314Z,21.81
2022-10-24T09:40:37.975Z,21.94
2022-10-24T09:43:07.733Z,21.75
2022-10-24T10:17:02.725Z,21.22
2022-10-24T10:19:36.259Z,21.49
2022-10-24T10:22:03.101Z,21.57
2022-10-24T10:24:35.955Z,21.84
2022-10-24T10:27:03.058Z,22.10
2022-10-24T10:29:29.989Z,22.03
2022-10-24T10:32:23.346Z,22.16
2022-10-24T10:35:02.051Z,22.39
2022-10-24T10:37:36.059Z,22.29
2022-10-24T10:40:16.311Z,22.07
2022-10-24T10:42:57.923Z,22.19
2022-10-24T10:45:50.777Z,22.29
2022-10-24T10:48:36.827Z,22.32
2022-10-24T10:51:21.525Z,22.44
2022-10-24T10:54:11.592Z,22.21
2022-10-24T10:57:00.470Z,22.32
2022-10-24T11:00:00.160Z,22.29
2022-10-24T11:02:57.622Z,22.26
2022-10-24T11:05:46.311Z,22.28
2022-10-24T11:08:34.509Z,22.16
2022-10-24T11:11:06.935Z,22.10
2022-10-24T11:13:51.047Z,22.15
2022-10-24T11:16:25.274Z,22.14
2022-10-24T11:18:54.532Z,22.14
2022-10-24T11:21:25.341Z,22.29
2022-10-24T11:24:13.589Z,22.08
2022-10-24T11:26:48.342Z,22.28
2022-10-24T11:29:23.975Z,22.14
2022-10-24T11:31:59.088Z,22.21
2022-10-24T11:34:35.574Z,22.13
2022-10-24T11:37:21.024Z,22.00
2022-10-24T11:40:18.743Z,21.95
2022-10-24T11:42:45.973Z,21.76
2022-10-24T11:45:18.825Z,22.04
2022-10-24T11:48:21.129Z,21.96
2022-10-24T11:51:30.118Z,21.97
2022-10-24T11:54:05.041Z,21.85
2022-10-24T11:56:42.303Z,21.82
2022-10-24T11:59:25.692Z,21.68
2022-10-24T12:01:55.265Z,21.88
2022-10-24T12:05:01.665Z,21.73
2022-10-24T12:07:40.074Z,21.78
2022-10-24T12:10:27.764Z,21.59
2022-10-24T12:13:06.418Z,21.59
2022-10-24T12:15:59.268Z,21.62
2022-10-24T12:18:41.747Z,21.46
2022-10-24T12:21:13.038Z,21.22
2022-10-24T12:23:41.797Z,21.33
2022-10-24T12:26:14.929Z,21.07
2022-10-24T12:28:43.657Z,21.15
2022-10-24T12:31:14.223Z,21.26
2022-10-24T12:33:43.248Z,21.16
2022-10-24T12:36:10.819Z,21.08
2022-10-24T12:38:37.723Z,21.01
2022-10-24T12:41:27.927Z,20.82
2022-10-24T12:44:26.243Z,20.99
2022-10-24T12:46:55.219Z,20.99
2022-10-24T12:49:29.243Z,20.98
2022-10-24T12:51:57.290Z,20.61
2022-10-24T12:54:44.876Z,20.74
2022-10-24T12:57:11.745Z,20.75
2022-10-24T12:59:57.766Z,20.70
2022-10-24T13:02:48.463Z,20.46
2022-10-24T13:05:34.905Z,20.60
2022-10-24T13:08:10.873Z,20.56
2022-10-24T13:10:49.640Z,20.51
2022-10-24T13:13:25.354Z,20.52
2022-10-24T13:16:18.892Z,20.53
2022-10-24T13:19:00.285Z,20.56
2022-10-24T13:21:31.463Z,20.42
2022-10-24T13:24:12.910Z,20.22
2022-10-24T13:26:45.946Z,20.41
2022-10-24T13:29:16.336Z,20.43
2022-10-24T13:31:46.355Z,20.12
2022-10-24T13:34:19.036Z,20.20
2022-10-24T13:36:51.021Z,19.87
2022-10-24T13:39:23.953Z,19.74
2022-10-24T13:41:58.857Z,20.00
2022-10-24T13:44:29.486Z,20.04
2022-10-24T13:47:17.673Z,19.84
2022-10-24T13:50:13.390Z,19.53
2022-10-24T13:52:49.615Z,19.30
2022-10-24T13:55:39.029Z,19.16
2022-10-24T13:58:05.882Z,19.12
2022-10-24T14:00:38.144Z,19.23
2022-10-24T14:03:11.435Z,19.40
2022-10-24T14:05:44.487Z,19.04
2022-10-24T14:08:31.601Z,19.03
2022-10-24T14:11:02.161Z,18.78
2022-10-24T14:13:31.675Z,18.69
2022-10-24T14:16:04.462Z,18.82
2022-10-24T14:18:32.675Z,18.69
2022-10-24T14:21:02.279Z,18.58
2022-10-24T14:23:37.665Z,18.44
2022-10-24T14:26:08.554Z,18.35
2022-10-24T14:28:39.092Z,18.42
2022-10-24T14:31:18.389Z,18.35
2022-10-24T14:33:48.872Z,18.30
2022-10-24T14:36:18.741Z,18.42
2022-10-24T14:38:46.010Z,18.32
2022-10-24T14:41:13.871Z,18.14
2022-10-24T14:43:44.208Z,18.11
2022-10-24T14:46:14.125Z,18.11
2022-10-24T14:48:47.361Z,17.99
2022-10-24T14:51:39.149Z,18.01
2022-10-24T14:54:17.701Z,18.03
2022-10-24T14:56:45.750Z,17.94
2022-10-24T14:59:37.770Z,18.00
2022-10-24T15:02:28.063Z,17.69
2022-10-24T15:05:13.253Z,17.46
2022-10-24T15:07:52.258Z,17.23
2022-10-24T15:10:38.599Z,17.26
2022-10-24T15:13:17.296Z,17.46
2022-10-24T15:15:44.136Z,17.62
2022-10-24T15:18:18.564Z,17.68
2022-10-24T15:20:47.469Z,17.62
2022-10-24T15:23:21.038Z,17.31
2022-10-24T15:26:00.343Z,17.19
2022-10-24T15:28:44.735Z,17.16
2022-10-24T15:31:13.501Z,17.15
2022-10-24T15:33:41.058Z,17.11
2022-10-24T15:36:29.620Z,17.04
2022-10-24T15:39:01.425Z,17.12
2022-10-24T15:41:28.979Z,17.19
2022-10-24T15:43:57.263Z,17.15
2022-10-24T15:46:24.954Z,17.12
2022-10-24T15:48:52.564Z,17.20
2022-10-24T15:51:22.311Z,17.16
2022-10-24T15:53:50.468Z,17.04
2022-10-24T15:56:17.924Z,17.00
2022-10-24T15:58:44.847Z,16.90
2022-10-24T16:01:24.116Z,16.91
2022-10-24T16:03:51.269Z,16.66
2022-10-24T16:06:18.194Z,16.69
2022-10-24T16:08:45.078Z,16.66
2022-10-24T16:11:12.579Z,16.60
2022-10-24T16:13:41.330Z,16.63
2022-10-24T16:16:08.608Z,16.57
2022-10-24T16:18:37.608Z,16.42
2022-10-24T16:21:05.243Z,16.40
2022-10-24T16:23:33.912Z,16.53
2022-10-24T16:26:00.917Z,16.66
2022-10-24T16:28:28.969Z,16.63
2022-10-24T16:30:56.078Z,16.55
2022-10-24T16:33:23.098Z,16.54
2022-10-24T16:35:51.129Z,16.42
2022-10-24T16:38:18.512Z,16.36
2022-10-24T16:40:47.170Z,16.35
2022-10-24T16:43:16.804Z,16.34
2022-10-24T16:45:44.261Z,16.44
2022-10-24T16:48:11.283Z,16.41
2022-10-24T16:50:42.390Z,16.44
2022-10-24T16:53:10.367Z,16.32
2022-10-24T16:55:37.509Z,16.30
2022-10-24T16:58:04.472Z,16.30
2022-10-24T17:00:31.613Z,16.47
2022-10-24T17:02:58.940Z,16.48
2022-10-24T17:05:28.405Z,16.37
2022-10-24T17:07:55.999Z,16.36
2022-10-24T17:10:24.821Z,16.26
2022-10-24T17:12:52.621Z,16.31
2022-10-24T17:15:22.132Z,16.33
2022-10-24T17:17:50.344Z,16.19
2022-10-24T17:20:17.446Z,16.24
2022-10-24T17:22:46.532Z,16.32
2022-10-24T17:25:19.854Z,16.39
2022-10-24T17:27:47.571Z,16.26
2022-10-24T17:30:24.236Z,16.33
2022-10-24T17:32:51.403Z,16.33
2022-10-24T17:35:21.622Z,16.26
2022-10-24T17:38:26.080Z,16.38
2022-10-24T17:40:58.330Z,16.31
2022-10-24T17:43:27.289Z,16.35
2022-10-24T17:45:56.747Z,16.27
2022-10-24T17:48:24.534Z,16.41
2022-10-24T17:50:53.442Z,16.38
2022-10-24T17:53:20.352Z,16.21
2022-10-24T17:55:48.099Z,16.26
2022-10-24T17:58:16.387Z,16.29
2022-10-24T18:00:44.711Z,16.36
2022-10-24T18:03:12.183Z,16.34
2022-10-24T18:05:39.333Z,16.28
2022-10-24T18:08:09.127Z,16.27
2022-10-24T18:10:42.353Z,16.25
2022-10-24T18:13:09.846Z,16.05
2022-10-24T18:15:36.999Z,16.05
2022-10-24T18:18:04.679Z,16.06
2022-10-24T18:20:32.314Z,16.10
2022-10-24T18:22:59.484Z,16.08
2022-10-24T18:25:26.774Z,15.96
2022-10-24T18:27:53.972Z,15.99
2022-10-24T18:30:20.986Z,16.11
2022-10-24T18:32:48.795Z,16.22
2022-10-24T18:35:15.914Z,16.27
2022-10-24T18:37:43.296Z,16.12
2022-10-24T18:40:11.108Z,16.13
2022-10-24T18:42:44.115Z,16.20
2022-10-24T18:45:19.707Z,16.37
2022-10-24T18:47:47.836Z,16.23
2022-10-24T18:50:17.650Z,16.19
2022-10-24T18:52:47.130Z,16.43
2022-10-24T18:55:19.153Z,16.36
2022-10-24T18:57:47.093Z,16.36
2022-10-24T19:00:17.259Z,16.30
2022-10-24T19:03:18.421Z,16.41
2022-10-24T19:06:21.691Z,16.58
2022-10-24T19:08:48.693Z,16.53
2022-10-24T19:11:15.858Z,16.48
2022-10-24T19:13:44.924Z,16.52
2022-10-24T19:16:17.107Z,16.44
2022-10-24T19:18:50.457Z,16.57
2022-10-24T19:21:17.588Z,16.58
2022-10-24T19:23:44.567Z,16.64
2022-10-24T19:26:12.202Z,16.49
2022-10-24T19:28:39.079Z,16.48
2022-10-24T19:31:06.808Z,16.52
2022-10-24T19:33:33.847Z,16.33
2022-10-24T19:36:05.701Z,16.52
2022-10-24T19:38:32.866Z,16.46
2022-10-24T19:41:00.323Z,16.46
2022-10-24T19:43:30.857Z,16.56
2022-10-24T19:46:14.894Z,16.45
2022-10-24T19:48:49.224Z,16.42
2022-10-24T19:51:18.185Z,16.44
2022-10-24T19:53:45.734Z,16.36
2022-10-24T19:56:23.985Z,16.31
2022-10-24T19:58:53.238Z,16.30
2022-10-24T20:01:23.804Z,16.48
2022-10-24T20:03:51.944Z,16.36
2022-10-24T20:06:19.703Z,16.52
2022-10-24T20:08:47.681Z,16.30
2022-10-24T20:11:20.687Z,16.24
2022-10-24T20:13:50.470Z,16.32
2022-10-24T20:16:17.903Z,16.39
2022-10-24T20:18:44.855Z,16.41
2022-10-24T20:21:14.788Z,16.51
2022-10-24T20:23:41.918Z,16.41
2022-10-24T20:26:21.412Z,16.44
2022-10-24T20:28:51.047Z,16.38
2022-10-24T20:31:21.041Z,16.46
2022-10-24T20:33:48.115Z,16.51
2022-10-24T20:36:15.251Z,16.49
2022-10-24T20:38:42.161Z,16.47
2022-10-24T20:41:09.307Z,16.42
2022-10-24T20:43:36.291Z,16.37
2022-10-24T20:46:06.755Z,16.38
2022-10-24T20:48:34.862Z,16.35
2022-10-24T20:51:12.486Z,16.43
2022-10-24T20:53:40.236Z,16.36
2022-10-24T20:56:09.660Z,16.34
2022-10-24T20:58:38.589Z,16.35
2022-10-24T21:01:10.831Z,16.31
2022-10-24T21:03:38.694Z,16.38
2022-10-24T21:06:13.775Z,16.45
2022-10-24T21:08:40.729Z,16.42
2022-10-24T21:11:08.161Z,16.47
2022-10-24T21:13:35.047Z,16.36
2022-10-24T21:16:02.324Z,16.39
2022-10-24T21:18:29.191Z,16.42
2022-10-24T21:20:56.039Z,16.31
2022-10-24T21:23:23.013Z,16.35
2022-10-24T21:25:49.860Z,16.31
2022-10-24T21:28:16.755Z,16.33
2022-10-24T21:30:43.607Z,16.22
2022-10-24T21:33:10.806Z,16.22
2022-10-24T21:35:39.243Z,16.37
2022-10-24T21:38:06.106Z,16.31
2022-10-24T21:40:32.978Z,16.29
2022-10-24T21:43:01.171Z,16.26
2022-10-24T21:45:28.070Z,16.34
2022-10-24T21:47:54.924Z,16.37
2022-10-24T21:50:21.858Z,16.32
2022-10-24T21:52:48.902Z,16.39
2022-10-24T21:55:16.091Z,16.42
2022-10-24T21:57:43.039Z,16.44
2022-10-24T22:00:10.651Z,16.44
2022-10-24T22:02:37.534Z,16.48
2022-10-24T22:05:04.874Z,16.41
2022-10-24T22:07:31.711Z,16.37
2022-10-24T22:09:58.656Z,16.47
2022-10-24T22:12:25.612Z,16.32
2022-10-24T22:14:52.536Z,16.41
2022-10-24T22:17:19.411Z,16.44
2022-10-24T22:19:46.252Z,16.41
2022-10-24T22:22:13.396Z,16.38
2022-10-24T22:24:40.238Z,16.45
2022-10-24T22:27:07.073Z,16.31
2022-10-24T22:29:34.052Z,16.33
2022-10-24T22:32:01.099Z,16.47
2022-10-24T22:34:28.638Z,16.39
2022-10-24T22:37:13.019Z,16.32
2022-10-24T22:39:40.630Z,16.39
2022-10-24T22:42:12.445Z,16.40
2022-10-24T22:44:41.990Z,16.28
2022-10-24T22:47:29.843Z,16.26
2022-10-24T22:50:11.840Z,16.16
2022-10-24T22:52:39.185Z,16.21
2022-10-24T22:55:17.553Z,16.31
2022-10-24T22:57:44.853Z,16.31
2022-10-24T23:00:12.320Z,16.26
2022-10-24T23:02:45.637Z,16.17
2022-10-24T23:05:36.593Z,16.14
2022-10-24T23:08:12.470Z,16.29
2022-10-24T23:10:40.089Z,16.36
2022-10-24T23:13:07.458Z,16.36
2022-10-24T23:15:34.622Z,16.25
2022-10-24T23:18:01.773Z,16.31
2022-10-24T23:20:43.984Z,16.19
2022-10-24T23:23:28.052Z,16.19
2022-10-24T23:26:03.800Z,16.24
2022-10-24T23:28:42.623Z,16.39
2022-10-24T23:31:09.895Z,16.36
2022-10-24T23:33:37.045Z,16.31
2022-10-24T23:36:04.320Z,16.33
2022-10-24T23:38:31.464Z,16.18
2022-10-24T23:40:58.698Z,16.13
2022-10-24T23:43:25.913Z,16.13
2022-10-24T23:46:33.413Z,16.15
2022-10-24T23:49:29.894Z,16.17
2022-10-24T23:52:32.384Z,16.12
2022-10-24T23:54:59.550Z,16.14
2022-10-24T23:57:26.648Z,16.08
2022-10-24T23:59:53.659Z,16.11
